Terminal Aerodrome Forecast
Issued by NWS

Home | Current Version | Previous Version | Text Only | Print | Product List | Glossary On
Versions: 1 2 3 4 5 6 7 8 9 10 11 12 13 14 15 16 17 18 19 20 21 22 23 24 25 26 27 28 29 30 31 32 33 34 35 36 37 38 39 40 41 42 43 44 45
000
FTUS45 KBOU 300538
TAFAPA
TAF
KAPA 300538Z 3006/3106 04006KT 5SM -RA OVC035
      TEMPO 3006/3009 2SM RA BR SCT015 OVC025
     FM300900 06007KT P6SM FEW006 BKN014 OVC030
      TEMPO 3010/3014 3SM SHRA BR BKN006 OVC012
     FM301400 02012KT P6SM FEW006 BKN012 OVC030
      TEMPO 3014/3017 4SM SHRA BR BKN007 OVC015
     FM301900 02012KT P6SM SCT025 OVC040
      TEMPO 3020/3024 -TSRA BKN025CB
     FM310000 34010KT P6SM SCT035 BKN060 PROB30 3100/3105 -SHRA
      BKN040=

USA.gov is the U.S. government's official web portal to all federal, state and local government web resources and services.